Time;durP1;ratioP1;P1;durP2;ratioP2;P2;SDS_P1;SDS_P2;PMS_P1;PMS_P2;Temp;Humidity;BMP_temperature;BMP_pressure;BME280_temperature;BME280_humidity;BME280_pressure;Samples;Min_cycle;Max_cycle;Signal;HPM_P1;HPM_P2
2021/08/31 00:00:15;;;;;;;8.80;7.90;;;;;;;11.46;82.95;96734.66;1728178;82;25734;-83
2021/08/31 00:02:43;;;;;;;11.15;7.67;;;;;;;11.44;83.03;96729.48;1737431;82;25628;-87
2021/08/31 00:05:12;;;;;;;8.83;7.83;;;;;;;11.46;83.06;96723.85;1733124;82;25757;-87
2021/08/31 00:07:39;;;;;;;10.72;7.97;;;;;;;11.46;83.01;96721.16;1725428;82;27618;-85
2021/08/31 00:10:07;;;;;;;10.20;7.12;;;;;;;11.48;83.04;96724.42;1732348;82;26423;-85
2021/08/31 00:12:35;;;;;;;10.32;8.25;;;;;;;11.44;83.07;96711.09;1737632;82;25749;-86
2021/08/31 00:15:03;;;;;;;12.70;7.95;;;;;;;11.50;83.11;96718.26;1728856;82;26572;-85
2021/08/31 00:17:29;;;;;;;10.18;7.53;;;;;;;11.47;83.07;96709.28;1725749;82;25781;-84
2021/08/31 00:19:56;;;;;;;8.88;7.70;;;;;;;11.44;83.09;96712.45;1746448;82;27427;-85
2021/08/31 00:22:23;;;;;;;10.03;8.38;;;;;;;11.44;83.21;96717.85;1727761;82;25882;-86
2021/08/31 00:24:49;;;;;;;12.05;8.20;;;;;;;11.44;83.24;96712.45;1737955;82;25832;-84
2021/08/31 00:27:16;;;;;;;8.30;7.40;;;;;;;11.45;83.31;96714.92;1733140;82;25790;-85
2021/08/31 00:29:43;;;;;;;12.78;8.68;;;;;;;11.47;83.32;96714.69;1723839;82;25687;-84
2021/08/31 00:32:10;;;;;;;10.43;8.33;;;;;;;11.46;83.37;96713.05;1730155;82;27448;-82
2021/08/31 00:34:36;;;;;;;12.37;8.33;;;;;;;11.46;83.44;96706.28;1715902;82;26185;-86
2021/08/31 00:37:03;;;;;;;12.60;8.10;;;;;;;11.47;83.47;96711.99;1743981;82;25282;-84
2021/08/31 00:39:31;;;;;;;10.32;8.33;;;;;;;11.46;83.48;96710.34;1723550;82;26435;-85
2021/08/31 00:41:58;;;;;;;9.80;7.90;;;;;;;11.45;83.50;96712.75;1734993;82;25830;-85
2021/08/31 00:44:27;;;;;;;11.78;7.22;;;;;;;11.41;83.48;96720.48;1726021;82;28058;-84
2021/08/31 00:46:55;;;;;;;9.70;7.35;;;;;;;11.41;83.56;96707.50;1722774;82;25853;-85
2021/08/31 00:49:24;;;;;;;7.10;6.37;;;;;;;11.44;83.47;96713.27;1743832;82;25760;-86
2021/08/31 00:51:52;;;;;;;8.73;6.78;;;;;;;11.49;83.43;96709.85;1743844;82;25811;-86
2021/08/31 00:54:22;;;;;;;7.85;7.05;;;;;;;11.53;83.50;96716.45;1743926;82;26542;-86
2021/08/31 00:56:49;;;;;;;9.00;6.80;;;;;;;11.58;83.60;96719.81;1744012;82;27368;-86
2021/08/31 00:59:20;;;;;;;8.53;7.05;;;;;;;11.63;83.62;96720.73;1730649;82;25752;-86
2021/08/31 01:01:53;;;;;;;9.48;7.67;;;;;;;11.68;83.41;96715.98;1739935;82;25700;-86
2021/08/31 01:04:21;;;;;;;8.63;7.08;;;;;;;11.69;83.43;96718.46;1742560;81;25714;-87
2021/08/31 01:06:53;;;;;;;9.80;6.87;;;;;;;11.70;83.39;96721.46;1723121;82;25690;-85
2021/08/31 01:09:25;;;;;;;10.90;7.35;;;;;;;11.73;83.23;96717.44;1738946;82;27388;-84
2021/08/31 01:11:59;;;;;;;8.43;7.53;;;;;;;11.77;83.14;96721.36;1729800;82;25711;-82
2021/08/31 01:14:26;;;;;;;9.78;7.10;;;;;;;11.77;83.06;96720.83;1744043;82;25762;-82
2021/08/31 01:16:54;;;;;;;11.18;7.75;;;;;;;11.74;82.93;96717.20;1743942;82;25868;-86
2021/08/31 01:19:31;;;;;;;7.47;6.40;;;;;;;11.75;82.95;96713.98;1740945;82;25727;-83
2021/08/31 01:22:03;;;;;;;7.85;6.85;;;;;;;11.74;83.04;96715.03;1728349;82;28226;-83
2021/08/31 01:24:29;;;;;;;7.83;6.87;;;;;;;11.72;83.15;96716.62;1740972;81;25821;-86
2021/08/31 01:26:59;;;;;;;9.23;7.03;;;;;;;11.71;83.23;96713.62;1726691;82;25305;-85
2021/08/31 01:29:31;;;;;;;7.97;7.00;;;;;;;11.73;83.25;96710.68;1724018;82;25735;-84
2021/08/31 01:31:59;;;;;;;9.38;7.37;;;;;;;11.70;83.22;96714.70;1736116;82;25640;-81
2021/08/31 01:34:25;;;;;;;9.15;7.22;;;;;;;11.70;83.25;96701.72;1738481;82;27447;-86
2021/08/31 01:36:52;;;;;;;9.23;6.70;;;;;;;11.70;83.33;96697.12;1726246;82;26074;-81
2021/08/31 01:39:19;;;;;;;9.98;7.45;;;;;;;11.71;83.39;96697.39;1729765;82;25763;-86
2021/08/31 01:41:45;;;;;;;8.23;7.35;;;;;;;11.68;83.38;96695.19;1723193;81;25843;-82
2021/08/31 01:44:12;;;;;;;7.28;6.58;;;;;;;11.69;83.39;96696.83;1747407;82;25807;-84
2021/08/31 01:46:38;;;;;;;7.05;6.35;;;;;;;11.71;83.11;96698.75;1744354;81;28051;-85
2021/08/31 01:49:05;;;;;;;8.18;7.03;;;;;;;11.76;83.08;96686.74;1729710;82;25708;-82
2021/08/31 01:51:32;;;;;;;7.33;6.60;;;;;;;11.78;83.12;96690.56;1726305;82;25648;-82
2021/08/31 01:53:59;;;;;;;8.30;7.08;;;;;;;11.79;83.11;96687.63;1721087;82;25842;-84
2021/08/31 01:56:25;;;;;;;8.53;6.78;;;;;;;11.83;82.95;96685.28;1717615;82;25251;-84
2021/08/31 01:58:52;;;;;;;9.78;7.17;;;;;;;11.88;83.04;96676.73;1745464;82;28412;-84
2021/08/31 02:01:19;;;;;;;7.30;6.53;;;;;;;11.88;83.08;96673.20;1731138;82;26007;-86
2021/08/31 02:03:45;;;;;;;9.40;8.20;;;;;;;11.87;83.05;96672.38;1738602;82;25746;-82
2021/08/31 02:06:12;;;;;;;7.78;7.08;;;;;;;11.88;82.91;96680.80;1717534;82;25764;-86
2021/08/31 02:08:38;;;;;;;7.90;6.92;;;;;;;11.90;82.96;96675.98;1738496;82;25774;-85
2021/08/31 02:11:05;;;;;;;8.40;7.05;;;;;;;11.90;83.01;96671.09;1717817;82;28297;-86
2021/08/31 02:13:32;;;;;;;8.15;6.37;;;;;;;11.94;83.04;96671.45;1736073;82;25623;-85
2021/08/31 02:15:58;;;;;;;7.40;6.50;;;;;;;11.98;82.89;96673.95;1719584;82;25741;-84
2021/08/31 02:18:25;;;;;;;7.65;6.45;;;;;;;11.99;82.86;96666.13;1733320;81;25750;-85
2021/08/31 02:20:51;;;;;;;8.43;6.10;;;;;;;12.01;82.88;96665.37;1730519;82;25854;-86
2021/08/31 02:23:18;;;;;;;11.30;6.15;;;;;;;12.04;82.79;96664.38;1717548;82;28163;-85
2021/08/31 02:25:44;;;;;;;7.08;6.33;;;;;;;12.05;82.60;96665.20;1738263;82;25846;-84
2021/08/31 02:28:11;;;;;;;6.83;6.12;;;;;;;12.09;82.57;96667.70;1722794;81;25831;-85
2021/08/31 02:30:38;;;;;;;8.75;6.42;;;;;;;12.12;82.51;96668.58;1718414;81;27022;-85
2021/08/31 02:33:04;;;;;;;7.75;6.12;;;;;;;12.15;82.46;96669.46;1720939;81;25749;-86
2021/08/31 02:35:32;;;;;;;7.40;6.58;;;;;;;12.18;82.40;96667.11;1738060;81;27615;-85
2021/08/31 02:37:59;;;;;;;6.42;5.83;;;;;;;12.20;82.33;96662.78;1724028;81;25607;-85
2021/08/31 02:40:26;;;;;;;6.87;6.17;;;;;;;12.23;82.27;96665.84;1735731;81;25879;-87
2021/08/31 02:42:53;;;;;;;5.95;5.40;;;;;;;12.24;82.13;96669.38;1729641;81;26448;-87
2021/08/31 02:45:19;;;;;;;6.60;5.62;;;;;;;12.24;82.31;96666.14;1738594;81;25726;-83
2021/08/31 02:47:46;;;;;;;6.90;6.20;;;;;;;12.22;82.46;96663.37;1741912;81;27029;-86
2021/08/31 02:50:13;;;;;;;9.20;6.70;;;;;;;12.22;82.51;96659.31;1720765;81;25828;-86
2021/08/31 02:52:39;;;;;;;7.05;6.35;;;;;;;12.20;82.49;96657.38;1739578;81;25743;-87
2021/08/31 02:55:06;;;;;;;9.20;6.35;;;;;;;12.18;82.32;96650.05;1729723;81;26304;-88
2021/08/31 02:57:33;;;;;;;6.80;6.10;;;;;;;12.21;82.34;96646.31;1734544;81;25753;-82
2021/08/31 03:00:01;;;;;;;7.20;6.50;;;;;;;12.19;82.35;96655.76;1741929;81;27419;-87
2021/08/31 03:02:28;;;;;;;7.05;6.35;;;;;;;12.20;82.43;96654.14;1720746;81;25899;-88
2021/08/31 03:04:54;;;;;;;8.00;6.55;;;;;;;12.20;82.64;96649.25;1722602;81;25761;-86
2021/08/31 03:07:21;;;;;;;8.40;7.05;;;;;;;12.14;82.57;96651.58;1745023;81;25850;-86
2021/08/31 03:09:47;;;;;;;9.40;6.80;;;;;;;12.12;82.74;96647.76;1736439;81;25678;-83
2021/08/31 03:12:14;;;;;;;7.72;6.15;;;;;;;12.11;82.82;96650.17;1723404;81;27539;-86
2021/08/31 03:14:40;;;;;;;7.40;6.67;;;;;;;12.09;82.86;96646.05;1750594;81;25675;-85
2021/08/31 03:17:09;;;;;;;9.03;7.08;;;;;;;12.08;82.92;96646.58;1729524;81;25267;-85
2021/08/31 03:19:35;;;;;;;8.18;7.30;;;;;;;12.09;83.00;96646.05;1720798;81;26384;-84
2021/08/31 03:22:05;;;;;;;9.25;7.90;;;;;;;12.10;83.02;96646.34;1720828;81;25573;-84
2021/08/31 03:24:32;;;;;;;10.48;8.75;;;;;;;12.13;83.01;96643.17;1728148;81;27466;-84
2021/08/31 03:26:58;;;;;;;11.15;8.58;;;;;;;12.14;82.95;96646.17;1733973;81;25894;-83
2021/08/31 03:29:25;;;;;;;12.07;8.73;;;;;;;12.15;83.01;96645.11;1746556;81;25715;-83
2021/08/31 03:31:52;;;;;;;9.53;7.78;;;;;;;12.16;83.05;96645.41;1733423;82;25953;-83
2021/08/31 03:34:18;;;;;;;10.88;8.43;;;;;;;12.16;83.11;96645.41;1719655;82;25807;-84
2021/08/31 03:36:45;;;;;;;9.60;8.03;;;;;;;12.18;83.07;96645.47;1723347;82;28321;-83
2021/08/31 03:39:12;;;;;;;9.40;7.75;;;;;;;12.17;83.12;96647.05;1715683;82;25723;-85
2021/08/31 03:41:39;;;;;;;9.90;8.18;;;;;;;12.18;83.09;96648.70;1727234;82;25744;-83
2021/08/31 03:44:05;;;;;;;11.80;8.33;;;;;;;12.20;83.03;96646.02;1724054;82;26474;-85
2021/08/31 03:46:32;;;;;;;9.85;8.38;;;;;;;12.22;83.04;96651.20;1724193;81;25766;-85
2021/08/31 03:48:59;;;;;;;10.90;8.90;;;;;;;12.19;83.13;96653.05;1746650;80;27358;-85
2021/08/31 03:51:26;;;;;;;9.13;8.20;;;;;;;12.15;83.19;96650.52;1716393;82;25713;-86
2021/08/31 03:53:52;;;;;;;12.25;8.58;;;;;;;12.14;83.29;96646.17;1724999;82;25811;-85
2021/08/31 03:56:19;;;;;;;12.18;8.73;;;;;;;12.15;83.37;96649.17;1705314;82;25790;-86
2021/08/31 03:58:45;;;;;;;12.53;9.03;;;;;;;12.11;83.40;96639.87;1715032;82;25778;-88
2021/08/31 04:01:12;;;;;;;11.25;9.53;;;;;;;12.10;83.48;96641.76;1744282;81;28091;-89
2021/08/31 04:03:38;;;;;;;10.88;8.40;;;;;;;12.12;83.49;96636.94;1721148;82;25706;-88
2021/08/31 04:06:05;;;;;;;8.08;7.25;;;;;;;12.11;83.39;96639.34;1722337;82;25318;-86
2021/08/31 04:08:31;;;;;;;8.90;8.00;;;;;;;12.13;83.30;96640.47;1726077;82;26421;-90
2021/08/31 04:10:58;;;;;;;8.85;7.95;;;;;;;12.14;83.30;96636.70;1723559;81;25722;-84
2021/08/31 04:13:25;;;;;;;8.70;7.33;;;;;;;12.16;83.29;96644.05;1718947;82;28166;-89
2021/08/31 04:15:51;;;;;;;11.65;8.00;;;;;;;12.17;83.27;96633.53;1706563;82;25763;-85
2021/08/31 04:18:19;;;;;;;9.05;8.15;;;;;;;12.16;83.24;96638.64;1720822;82;25763;-88
2021/08/31 04:20:45;;;;;;;9.25;8.15;;;;;;;12.18;83.29;96641.94;1721970;82;26657;-93
2021/08/31 04:23:12;;;;;;;9.38;7.95;;;;;;;12.21;83.32;96645.49;1718452;82;25755;-87
2021/08/31 04:25:40;;;;;;;9.15;7.97;;;;;;;12.20;83.22;96643.84;1723552;81;27290;-88
2021/08/31 04:28:07;;;;;;;9.93;8.93;;;;;;;12.20;83.23;96638.44;1719813;82;25572;-86
2021/08/31 04:30:33;;;;;;;10.88;8.30;;;;;;;12.21;83.31;96633.31;1715911;83;25720;-88
2021/08/31 04:33:02;;;;;;;10.38;8.95;;;;;;;12.24;83.32;96636.91;1713147;82;26502;-87
2021/08/31 04:35:28;;;;;;;8.58;7.78;;;;;;;12.23;83.36;96633.91;1718387;82;25734;-86
2021/08/31 04:37:55;;;;;;;8.55;7.75;;;;;;;12.23;83.28;96632.55;1715074;82;28175;-85
2021/08/31 04:40:22;;;;;;;10.53;8.98;;;;;;;12.17;83.20;96628.12;1743789;81;26022;-87
2021/08/31 04:42:49;;;;;;;11.60;9.13;;;;;;;12.19;83.32;96629.52;1722921;82;25838;-85
2021/08/31 04:45:15;;;;;;;10.68;9.33;;;;;;;12.20;83.48;96623.55;1741625;81;26455;-86
2021/08/31 04:47:42;;;;;;;12.85;9.53;;;;;;;12.20;83.52;96627.08;1714159;82;25749;-85
2021/08/31 04:50:09;;;;;;;13.98;9.30;;;;;;;12.23;83.58;96636.08;1722727;81;27331;-87
2021/08/31 04:52:36;;;;;;;9.95;9.00;;;;;;;12.23;83.67;96624.43;1743757;82;25831;-85
2021/08/31 04:55:03;;;;;;;10.10;9.15;;;;;;;12.18;83.70;96627.05;1737941;81;25683;-87
2021/08/31 04:57:30;;;;;;;10.13;9.10;;;;;;;12.18;83.84;96625.70;1721093;82;26459;-85
2021/08/31 04:59:56;;;;;;;11.78;9.65;;;;;;;12.15;83.87;96626.17;1738489;82;25857;-85
2021/08/31 05:02:23;;;;;;;10.72;9.63;;;;;;;12.16;83.99;96619.17;1743808;82;27362;-84
2021/08/31 05:04:51;;;;;;;11.73;10.25;;;;;;;12.16;84.04;96615.64;1722794;82;25905;-86
2021/08/31 05:07:18;;;;;;;13.60;11.40;;;;;;;12.14;84.10;96612.36;1738052;82;25854;-87
2021/08/31 05:09:44;;;;;;;14.38;11.78;;;;;;;12.15;84.19;96611.30;1743849;82;26339;-85
2021/08/31 05:12:11;;;;;;;18.35;14.38;;;;;;;12.17;84.17;96614.59;1741993;82;25776;-88
2021/08/31 05:14:37;;;;;;;27.67;19.25;;;;;;;12.19;84.17;96609.23;1713934;82;27428;-88
2021/08/31 05:17:04;;;;;;;21.40;17.10;;;;;;;12.22;84.21;96612.79;1713933;82;25807;-88
2021/08/31 05:19:33;;;;;;;18.23;14.38;;;;;;;12.27;84.21;96616.13;1734925;82;25838;-86
2021/08/31 05:22:04;;;;;;;19.92;14.20;;;;;;;12.25;84.16;96606.08;1731985;82;25825;-89
2021/08/31 05:24:33;;;;;;;17.62;13.40;;;;;;;12.27;84.25;96612.08;1735461;82;25229;-88
2021/08/31 05:27:00;;;;;;;13.70;11.48;;;;;;;12.27;84.32;96605.31;1726777;82;27441;-88
2021/08/31 05:29:26;;;;;;;16.57;12.88;;;;;;;12.26;84.26;96604.48;1718805;82;25813;-89
2021/08/31 05:31:53;;;;;;;11.03;9.25;;;;;;;12.28;84.24;96602.08;1742798;81;25823;-87
2021/08/31 05:34:20;;;;;;;11.88;10.63;;;;;;;12.28;84.23;96601.55;1722868;82;25808;-84
2021/08/31 05:36:47;;;;;;;13.18;10.15;;;;;;;12.29;84.27;96605.90;1732376;82;25831;-86
2021/08/31 05:39:13;;;;;;;9.20;8.30;;;;;;;12.33;84.31;96608.39;1714133;82;27522;-83
2021/08/31 05:41:40;;;;;;;11.30;8.53;;;;;;;12.35;84.19;96609.51;1718063;82;26020;-86
2021/08/31 05:44:07;;;;;;;10.88;8.43;;;;;;;12.40;84.21;96605.02;1732269;82;25793;-86
2021/08/31 05:46:33;;;;;;;10.18;8.45;;;;;;;12.40;84.08;96609.08;1748909;81;25738;-87
2021/08/31 05:49:00;;;;;;;10.68;7.62;;;;;;;12.44;84.05;96609.40;1729624;82;25830;-85
2021/08/31 05:51:27;;;;;;;10.13;8.35;;;;;;;12.44;84.10;96608.87;1718889;82;28190;-87
2021/08/31 05:53:54;;;;;;;11.57;9.53;;;;;;;12.47;84.01;96605.69;1738435;80;25750;-87
2021/08/31 05:56:21;;;;;;;9.35;7.70;;;;;;;12.54;84.04;96609.08;1742682;82;25775;-87
2021/08/31 05:58:47;;;;;;;9.65;8.73;;;;;;;12.60;83.91;96613.51;1724343;81;25892;-87
2021/08/31 06:01:14;;;;;;;10.05;8.88;;;;;;;12.66;83.81;96609.55;1724434;82;26871;-86
2021/08/31 06:03:40;;;;;;;11.90;7.90;;;;;;;12.72;83.80;96609.92;1721789;82;28127;-85
2021/08/31 06:06:07;;;;;;;8.25;6.60;;;;;;;12.75;83.90;96603.48;1743717;82;25929;-87
2021/08/31 06:08:34;;;;;;;7.17;6.30;;;;;;;12.79;83.71;96610.60;1743711;82;25719;-85
2021/08/31 06:11:00;;;;;;;7.65;6.87;;;;;;;12.80;83.70;96604.13;1735278;82;26418;-87
2021/08/31 06:13:27;;;;;;;7.70;6.95;;;;;;;12.84;83.63;96607.96;1731701;81;25727;-87
2021/08/31 06:15:54;;;;;;;10.38;7.47;;;;;;;12.84;83.62;96601.19;1737515;82;29120;-87
2021/08/31 06:18:21;;;;;;;6.83;6.12;;;;;;;12.85;83.70;96600.95;1714059;82;25750;-88
2021/08/31 06:20:47;;;;;;;9.08;6.95;;;;;;;12.88;83.76;96601.00;1738234;82;25694;-84
2021/08/31 06:23:14;;;;;;;7.40;6.62;;;;;;;12.92;83.62;96604.31;1731532;82;26335;-85
2021/08/31 06:25:41;;;;;;;6.40;5.80;;;;;;;12.99;83.71;96604.16;1735500;82;25687;-85
2021/08/31 06:28:07;;;;;;;8.23;6.30;;;;;;;13.03;83.57;96608.03;1728795;82;27363;-86
2021/08/31 06:30:34;;;;;;;7.53;6.47;;;;;;;13.07;83.46;96606.98;1732831;81;25738;-86
2021/08/31 06:33:00;;;;;;;6.95;5.92;;;;;;;13.08;83.41;96605.39;1739379;82;25813;-84
2021/08/31 06:35:27;;;;;;;7.17;5.90;;;;;;;13.10;83.27;96611.39;1716892;81;26368;-84
2021/08/31 06:37:54;;;;;;;8.08;6.60;;;;;;;13.11;83.26;96613.03;1732605;81;25649;-83
2021/08/31 06:40:20;;;;;;;9.53;7.47;;;;;;;13.13;83.33;96612.26;1746664;82;27538;-86
2021/08/31 06:42:47;;;;;;;8.28;7.33;;;;;;;13.16;83.25;96611.77;1723919;82;26499;-86
2021/08/31 06:45:13;;;;;;;7.85;7.03;;;;;;;13.19;83.17;96611.29;1727858;82;25793;-85
2021/08/31 06:47:40;;;;;;;9.05;6.62;;;;;;;13.23;83.16;96607.03;1746792;82;26642;-83
2021/08/31 06:50:13;;;;;;;6.67;5.97;;;;;;;13.28;83.21;96601.66;1717247;82;25635;-87
2021/08/31 06:52:36;;;;;;;6.85;6.15;;;;;;;13.31;83.11;96603.89;1734116;82;27351;-85
2021/08/31 06:55:03;;;;;;;6.37;5.65;;;;;;;13.37;83.08;96600.73;1725614;82;25706;-84
2021/08/31 06:57:30;;;;;;;5.87;5.28;;;;;;;13.41;82.95;96602.39;1746644;82;25682;-87
2021/08/31 06:59:56;;;;;;;6.67;5.72;;;;;;;13.46;82.96;96597.05;1725636;82;25822;-81
2021/08/31 07:02:23;;;;;;;6.08;5.47;;;;;;;13.51;82.93;96606.09;1720251;82;25269;-85
2021/08/31 07:04:49;;;;;;;5.37;4.87;;;;;;;13.58;83.03;96605.38;1717827;82;28253;-84
2021/08/31 07:07:16;;;;;;;5.67;4.70;;;;;;;13.66;83.05;96606.83;1717006;82;25878;-86
2021/08/31 07:09:43;;;;;;;5.35;4.85;;;;;;;13.67;82.83;96613.36;1746230;81;36252;-89
2021/08/31 07:12:12;;;;;;;5.15;4.65;;;;;;;13.71;82.82;96612.34;1741684;82;26590;-88
2021/08/31 07:14:38;;;;;;;5.75;5.15;;;;;;;13.72;82.82;96607.20;1716702;82;26554;-90
2021/08/31 07:17:05;;;;;;;5.37;4.87;;;;;;;13.75;82.66;96605.34;1723881;82;28183;-88
2021/08/31 07:19:32;;;;;;;5.08;4.08;;;;;;;13.76;82.58;96612.95;1731257;81;25718;-85
2021/08/31 07:21:58;;;;;;;4.70;4.20;;;;;;;13.77;82.53;96612.67;1734638;82;25794;-87
2021/08/31 07:24:25;;;;;;;4.55;3.90;;;;;;;13.79;82.54;96624.09;1719626;82;25833;-88
2021/08/31 07:26:51;;;;;;;4.53;4.05;;;;;;;13.80;82.49;96618.14;1731906;82;25646;-85
2021/08/31 07:29:18;;;;;;;4.00;3.70;;;;;;;13.83;82.46;96625.78;1746522;82;27354;-84
2021/08/31 07:31:45;;;;;;;4.72;3.92;;;;;;;13.84;82.50;96626.08;1734050;82;25873;-88
2021/08/31 07:34:11;;;;;;;4.20;3.80;;;;;;;13.81;82.33;96622.50;1738117;81;25712;-91
2021/08/31 07:36:38;;;;;;;3.90;3.50;;;;;;;13.80;82.30;96616.25;1717130;82;25738;-90
2021/08/31 07:39:04;;;;;;;4.00;3.60;;;;;;;13.82;82.29;96616.00;1717394;82;25866;-90
2021/08/31 07:41:31;;;;;;;6.97;3.95;;;;;;;13.85;82.40;96619.05;1742776;81;27531;-91
2021/08/31 07:43:58;;;;;;;4.15;3.75;;;;;;;13.89;82.38;96614.73;1746894;82;25684;-91
2021/08/31 07:46:24;;;;;;;4.75;3.47;;;;;;;13.92;82.32;96616.95;1726272;82;25762;-90
2021/08/31 07:48:51;;;;;;;4.42;3.80;;;;;;;13.95;82.32;96613.75;1733452;82;25870;-85
2021/08/31 07:51:18;;;;;;;5.15;3.62;;;;;;;14.02;82.38;96614.91;1717582;82;25748;-87
2021/08/31 07:53:44;;;;;;;3.35;2.62;;;;;;;14.06;82.39;96620.12;1717494;82;27451;-86
2021/08/31 07:56:11;;;;;;;3.27;2.98;;;;;;;14.09;82.34;96617.45;1737710;82;25869;-89
2021/08/31 07:58:38;;;;;;;4.78;2.98;;;;;;;14.08;82.18;96623.41;1726310;81;25770;-92
2021/08/31 08:01:04;;;;;;;5.15;3.05;;;;;;;14.11;82.18;96620.20;1729841;82;25840;-85
2021/08/31 08:03:31;;;;;;;3.35;3.00;;;;;;;14.14;82.22;96623.73;1723446;82;26264;-90
2021/08/31 08:05:58;;;;;;;5.08;3.10;;;;;;;14.17;82.15;96626.49;1732349;82;27589;-90
2021/08/31 08:08:25;;;;;;;3.65;2.80;;;;;;;14.19;82.23;96620.28;1735803;82;25727;-84
2021/08/31 08:10:51;;;;;;;5.85;3.25;;;;;;;14.23;82.16;96618.70;1726390;82;25758;-86
2021/08/31 08:13:19;;;;;;;3.02;2.70;;;;;;;14.24;82.11;96618.99;1731642;82;25604;-87
2021/08/31 08:15:45;;;;;;;2.60;2.40;;;;;;;14.24;81.93;96614.39;1717594;81;25891;-91
2021/08/31 08:18:12;;;;;;;2.70;2.50;;;;;;;14.25;81.89;96617.92;1730810;82;27365;-93
2021/08/31 08:20:42;;;;;;;3.25;2.45;;;;;;;14.25;81.89;96615.20;1726312;82;25684;-88
2021/08/31 08:23:07;;;;;;;2.92;2.67;;;;;;;14.25;81.86;96613.28;1736252;81;25762;-83
2021/08/31 08:25:34;;;;;;;3.85;2.75;;;;;;;14.29;81.81;96610.36;1737716;82;25781;-85
2021/08/31 08:28:00;;;;;;;2.72;2.50;;;;;;;14.35;81.78;96613.97;1726377;82;25871;-89
2021/08/31 08:30:27;;;;;;;2.47;2.27;;;;;;;14.40;81.73;96612.67;1729898;82;27394;-88
2021/08/31 08:32:53;;;;;;;2.30;2.10;;;;;;;14.44;81.67;96623.33;1737873;81;25807;-86
2021/08/31 08:35:21;;;;;;;2.83;2.52;;;;;;;14.44;81.46;96615.17;1731557;82;26479;-86
2021/08/31 08:37:48;;;;;;;2.37;2.17;;;;;;;14.48;81.51;96619.57;1725894;82;25823;-88
2021/08/31 08:40:14;;;;;;;5.12;2.30;;;;;;;14.48;81.39;96620.39;1734489;82;25778;-91
2021/08/31 08:42:41;;;;;;;2.12;1.92;;;;;;;14.48;81.31;96631.79;1717065;82;27458;-87
2021/08/31 08:45:10;;;;;;;1.72;1.50;;;;;;;14.45;81.19;96626.33;1716891;82;26073;-90
2021/08/31 08:47:37;;;;;;;1.70;1.60;;;;;;;14.46;81.15;96630.68;1736356;82;25687;-86
2021/08/31 08:50:04;;;;;;;1.35;1.25;;;;;;;14.47;81.22;96622.00;1718231;81;26269;-87
2021/08/31 08:52:30;;;;;;;1.00;1.00;;;;;;;14.47;81.25;96622.82;1733760;82;25732;-90
2021/08/31 08:54:57;;;;;;;2.02;1.57;;;;;;;14.44;81.11;96628.75;1720906;82;27425;-91
2021/08/31 08:57:30;;;;;;;1.47;1.20;;;;;;;14.39;81.17;96626.79;1717090;81;25751;-89
2021/08/31 08:59:57;;;;;;;1.05;1.00;;;;;;;14.36;81.23;96628.64;1738038;81;25803;-90
2021/08/31 09:02:40;;;;;;;1.30;1.20;;;;;;;14.28;81.21;96630.97;1729710;82;25900;-91
2021/08/31 09:05:10;;;;;;;3.30;1.20;;;;;;;14.24;81.32;96627.96;1726014;82;25822;-93
2021/08/31 09:07:40;;;;;;;1.32;1.22;;;;;;;14.23;81.35;96630.92;1746946;82;27360;-86
2021/08/31 09:10:27;;;;;;;1.40;1.30;;;;;;;14.22;81.43;96630.64;1728543;82;25811;-91
2021/08/31 09:12:53;;;;;;;2.33;1.30;;;;;;;14.19;81.41;96624.34;1716305;82;25727;-90
2021/08/31 09:15:32;;;;;;;1.85;1.50;;;;;;;14.18;81.50;96623.53;1736756;82;25833;-86
2021/08/31 09:18:13;;;;;;;1.82;1.72;;;;;;;14.17;81.44;96625.13;1746879;82;25774;-89
2021/08/31 09:20:48;;;;;;;2.10;1.80;;;;;;;14.16;81.51;96622.13;1724282;82;27428;-90
2021/08/31 09:23:22;;;;;;;4.42;2.20;;;;;;;14.15;81.64;96630.81;1727548;82;26250;-91
2021/08/31 09:25:53;;;;;;;2.92;2.35;;;;;;;14.16;81.65;96641.95;1725782;82;25747;-93
2021/08/31 09:28:28;;;;;;;2.85;1.90;;;;;;;14.15;81.75;96632.70;1734562;82;25810;-91
2021/08/31 09:31:09;;;;;;;2.98;2.10;;;;;;;14.11;81.72;96628.88;1736961;82;25324;-93
2021/08/31 09:33:42;;;;;;;4.00;2.45;;;;;;;14.11;81.82;96619.38;1708608;83;27327;-90
2021/08/31 09:36:18;;;;;;;2.40;2.12;;;;;;;14.08;81.89;96600.34;1718619;83;26366;-90
2021/08/31 09:39:05;;;;;;;2.05;1.95;;;;;;;14.07;82.03;96593.27;1719639;83;25754;-90
2021/08/31 09:41:39;;;;;;;2.40;2.08;;;;;;;14.08;82.17;96592.73;1719680;83;25820;-92
2021/08/31 09:44:14;;;;;;;4.80;3.17;;;;;;;14.15;82.33;96604.20;1702167;83;25715;-92
2021/08/31 09:47:00;;;;;;;5.37;2.90;;;;;;;14.19;82.37;96616.20;1718480;83;27523;-92
2021/08/31 09:49:34;;;;;;;3.05;2.62;;;;;;;14.24;82.58;96614.92;1719804;83;25799;-93
2021/08/31 09:52:14;;;;;;;4.87;2.30;;;;;;;14.26;82.88;96608.67;1709300;83;25799;-91
2021/08/31 09:54:46;;;;;;;4.65;2.25;;;;;;;14.30;83.09;96604.39;1711268;83;26940;-91
2021/08/31 09:57:38;;;;;;;3.52;2.37;;;;;;;14.34;83.19;96605.53;1702601;83;25815;-94
2021/08/31 10:00:16;;;;;;;2.95;2.30;;;;;;;14.40;83.24;96608.60;1716748;83;27443;-90
2021/08/31 10:02:43;;;;;;;2.25;2.05;;;;;;;14.46;83.09;96614.39;1719154;83;25281;-86
2021/08/31 10:05:10;;;;;;;4.37;2.95;;;;;;;14.52;83.08;96612.53;1699211;83;25762;-91
2021/08/31 10:07:38;;;;;;;2.77;2.25;;;;;;;14.57;83.09;96609.34;1719697;83;25764;-90
2021/08/31 10:10:07;;;;;;;2.77;1.92;;;;;;;14.66;83.00;96617.31;1719333;83;25257;-94
2021/08/31 10:12:36;;;;;;;2.47;1.90;;;;;;;14.73;82.81;96619.84;1718980;83;28034;-86
2021/08/31 10:15:05;;;;;;;2.70;1.32;;;;;;;14.79;82.63;96614.72;1713351;83;25435;-88
2021/08/31 10:17:31;;;;;;;2.92;1.25;;;;;;;14.87;82.43;96617.50;1698810;83;25817;-90
2021/08/31 10:20:04;;;;;;;2.62;1.62;;;;;;;14.93;82.24;96634.15;1719529;83;25908;-89
2021/08/31 10:22:31;;;;;;;2.00;1.62;;;;;;;14.99;82.04;96632.56;1716723;83;26052;-88
2021/08/31 10:24:59;;;;;;;4.30;1.27;;;;;;;15.03;81.91;96623.36;1690656;83;28270;-93
2021/08/31 10:27:40;;;;;;;1.15;1.02;;;;;;;15.06;81.75;96624.22;1712069;83;25854;-92
2021/08/31 10:30:21;;;;;;;1.20;1.10;;;;;;;15.07;81.66;96625.86;1719182;83;25230;-94
2021/08/31 10:32:52;;;;;;;1.65;1.40;;;;;;;15.08;81.58;96624.78;1722350;82;26410;-89
2021/08/31 10:35:39;;;;;;;1.20;1.10;;;;;;;15.05;81.38;96622.58;1743425;82;26583;-88
2021/08/31 10:38:10;;;;;;;1.35;1.25;;;;;;;15.00;81.23;96623.87;1713553;82;27406;-91
2021/08/31 10:40:46;;;;;;;1.30;1.20;;;;;;;14.96;81.16;96618.70;1714212;82;25778;-91
2021/08/31 10:43:16;;;;;;;1.25;1.07;;;;;;;14.94;81.16;96615.41;1735254;82;25750;-91
2021/08/31 10:45:55;;;;;;;1.35;1.20;;;;;;;14.89;81.00;96612.63;1714219;82;25913;-92
2021/08/31 10:48:27;;;;;;;1.50;1.30;;;;;;;14.87;80.98;96612.06;1735163;82;25811;-92
2021/08/31 10:51:10;;;;;;;1.42;1.27;;;;;;;14.88;80.98;96610.98;1732102;82;27477;-92
2021/08/31 10:53:49;;;;;;;1.32;1.22;;;;;;;14.87;80.93;96620.22;1744025;82;25716;-90
2021/08/31 10:56:26;;;;;;;3.30;1.57;;;;;;;14.86;80.86;96627.55;1742938;81;25280;-86
2021/08/31 10:58:57;;;;;;;1.57;1.47;;;;;;;14.87;80.95;96628.37;1737015;82;25835;-91
2021/08/31 11:01:36;;;;;;;1.72;1.30;;;;;;;14.89;80.96;96620.78;1735557;81;25830;-94
2021/08/31 11:04:29;;;;;;;2.02;1.42;;;;;;;14.91;80.89;96624.07;1741101;82;28120;-90
2021/08/31 11:07:05;;;;;;;2.70;1.20;;;;;;;14.90;80.85;96623.78;1682002;83;25963;-92
2021/08/31 11:09:33;;;;;;;1.47;1.17;;;;;;;14.90;80.75;96619.17;1655615;83;25376;-91
2021/08/31 11:12:11;;;;;;;3.12;1.37;;;;;;;14.93;80.81;96616.48;1662985;83;26219;-85
2021/08/31 11:14:51;;;;;;;1.17;1.07;;;;;;;14.93;80.75;96620.56;1718863;81;26081;-90
2021/08/31 11:17:40;;;;;;;2.37;1.30;;;;;;;14.90;80.73;96617.81;1681868;85;27379;-91
2021/08/31 11:20:24;;;;;;;1.67;1.25;;;;;;;14.93;80.76;96622.74;1689544;83;26023;-87
2021/08/31 11:23:09;;;;;;;2.12;1.17;;;;;;;14.94;80.65;96627.64;1682023;84;25878;-91
2021/08/31 11:25:40;;;;;;;1.47;1.37;;;;;;;14.93;80.60;96630.07;1689743;83;26853;-87
2021/08/31 11:28:17;;;;;;;3.72;1.67;;;;;;;14.94;80.61;96637.15;1681741;85;25846;-90
2021/08/31 11:30:57;;;;;;;1.37;1.25;;;;;;;14.96;80.61;96624.95;1681291;83;27375;-89
2021/08/31 11:33:37;;;;;;;1.42;1.32;;;;;;;14.95;80.51;96630.64;1671674;83;25763;-90
2021/08/31 11:36:10;;;;;;;1.62;1.37;;;;;;;14.94;80.52;96629.81;1667588;84;26020;-90
2021/08/31 11:38:53;;;;;;;2.40;1.15;;;;;;;14.94;80.66;96626.28;1656490;85;25705;-89